createdAt,value
2022-12-09T00:02:08.625Z,48.13
2022-12-09T00:04:37.098Z,46.10
2022-12-09T00:07:06.193Z,42.63
2022-12-09T00:09:34.671Z,42.00
2022-12-09T00:12:03.162Z,42.50
2022-12-09T00:14:32.790Z,44.03
2022-12-09T00:17:01.303Z,43.40
2022-12-09T00:19:29.899Z,43.90
2022-12-09T00:21:58.501Z,47.20
2022-12-09T00:24:26.682Z,42.55
2022-12-09T00:26:55.210Z,42.70
2022-12-09T00:29:23.532Z,40.17
2022-12-09T00:31:53.425Z,39.65
2022-12-09T00:34:21.580Z,42.60
2022-12-09T00:36:50.163Z,37.00
2022-12-09T00:39:18.830Z,35.50
2022-12-09T00:41:49.254Z,34.00
2022-12-09T00:44:17.429Z,34.92
2022-12-09T00:46:45.982Z,32.08
2022-12-09T00:49:15.800Z,33.00
2022-12-09T00:51:45.505Z,32.35
2022-12-09T00:54:13.754Z,33.30
2022-12-09T00:56:42.195Z,32.97
2022-12-09T00:59:10.255Z,35.22
2022-12-09T01:01:38.772Z,30.50
2022-12-09T01:04:08.791Z,34.42
2022-12-09T01:06:38.998Z,30.60
2022-12-09T01:09:07.415Z,33.72
2022-12-09T01:11:36.705Z,31.15
2022-12-09T01:14:05.405Z,31.65
2022-12-09T01:16:34.988Z,33.08
2022-12-09T01:19:05.101Z,31.63
2022-12-09T01:21:34.956Z,31.15
2022-12-09T01:24:08.095Z,32.33
2022-12-09T01:26:36.982Z,28.08
2022-12-09T01:29:05.822Z,32.45
2022-12-09T01:31:34.446Z,28.88
2022-12-09T01:34:02.711Z,29.45
2022-12-09T01:36:31.744Z,28.95
2022-12-09T01:39:01.414Z,27.55
2022-12-09T01:41:31.440Z,26.83
2022-12-09T01:44:11.096Z,26.50
2022-12-09T01:46:40.069Z,30.05
2022-12-09T01:49:09.867Z,29.65
2022-12-09T01:51:38.557Z,29.23
2022-12-09T01:54:06.899Z,30.45
2022-12-09T01:56:38.133Z,29.38
2022-12-09T01:59:08.285Z,31.25
2022-12-09T02:01:37.470Z,31.37
2022-12-09T02:04:06.950Z,27.83
2022-12-09T02:06:37.898Z,29.27
2022-12-09T02:09:06.690Z,31.67
2022-12-09T02:11:44.705Z,31.52
2022-12-09T02:14:18.201Z,30.20
2022-12-09T02:16:54.759Z,32.33
2022-12-09T02:19:31.706Z,28.85
2022-12-09T02:22:01.262Z,29.63
2022-12-09T02:24:36.229Z,27.77
2022-12-09T02:27:13.491Z,27.23
2022-12-09T02:29:52.324Z,25.75
2022-12-09T02:32:41.952Z,26.92
2022-12-09T02:35:14.149Z,28.63
2022-12-09T02:37:47.452Z,21.95
2022-12-09T02:40:17.963Z,22.15
2022-12-09T02:42:47.247Z,25.45
2022-12-09T02:45:16.918Z,20.02
2022-12-09T02:47:49.699Z,22.38
2022-12-09T02:50:22.864Z,22.80
2022-12-09T02:52:53.362Z,22.13
2022-12-09T02:55:22.569Z,22.08
2022-12-09T02:57:55.091Z,22.15
2022-12-09T03:00:23.575Z,19.75
2022-12-09T03:02:55.147Z,20.05
2022-12-09T03:08:00.363Z,20.30
2022-12-09T03:10:32.730Z,22.38
2022-12-09T03:13:05.100Z,22.45
2022-12-09T03:15:36.093Z,21.10
2022-12-09T03:18:08.660Z,20.75
2022-12-09T03:20:40.866Z,21.88
2022-12-09T03:23:10.508Z,20.00
2022-12-09T03:25:41.179Z,21.65
2022-12-09T03:28:12.819Z,18.85
2022-12-09T03:33:10.396Z,17.23
2022-12-09T03:35:42.606Z,20.30
2022-12-09T03:38:12.857Z,20.85
2022-12-09T03:40:41.997Z,23.50
2022-12-09T03:43:14.228Z,20.77
2022-12-09T03:45:43.282Z,19.65
2022-12-09T03:48:12.590Z,17.67
2022-12-09T03:50:46.725Z,20.40
2022-12-09T03:53:19.646Z,23.08
2022-12-09T03:55:52.674Z,19.23
2022-12-09T03:58:21.384Z,23.35
2022-12-09T04:00:50.300Z,24.30
2022-12-09T04:03:19.783Z,22.33
2022-12-09T04:05:49.404Z,22.17
2022-12-09T04:08:18.284Z,22.73
2022-12-09T04:10:46.976Z,23.77
2022-12-09T04:13:15.576Z,23.02
2022-12-09T04:15:43.858Z,26.10
2022-12-09T04:18:12.487Z,20.02
2022-12-09T04:20:41.148Z,23.67
2022-12-09T04:23:11.273Z,19.67
2022-12-09T04:25:39.444Z,22.30
2022-12-09T04:28:08.106Z,20.88
2022-12-09T04:30:36.692Z,20.63
2022-12-09T04:33:05.321Z,20.15
2022-12-09T04:35:33.418Z,20.08
2022-12-09T04:38:01.971Z,23.60
2022-12-09T04:40:31.868Z,19.77
2022-12-09T04:43:00.472Z,18.27
2022-12-09T04:45:29.852Z,18.80
2022-12-09T04:47:59.593Z,19.58
2022-12-09T04:50:28.138Z,18.85
2022-12-09T04:52:56.685Z,18.83
2022-12-09T04:55:24.844Z,22.13
2022-12-09T04:57:54.841Z,22.85
2022-12-09T05:00:23.675Z,21.33
2022-12-09T05:02:52.188Z,23.00
2022-12-09T05:05:20.884Z,32.08
2022-12-09T05:07:50.426Z,35.97
2022-12-09T05:10:19.353Z,30.90
2022-12-09T05:12:48.070Z,30.02
2022-12-09T05:15:17.951Z,28.30
2022-12-09T05:17:46.835Z,30.08
2022-12-09T05:20:15.936Z,28.95
2022-12-09T05:22:44.630Z,30.98
2022-12-09T05:25:13.289Z,31.52
2022-12-09T05:27:42.291Z,32.28
2022-12-09T05:30:11.967Z,29.85
2022-12-09T05:32:42.260Z,29.15
2022-12-09T05:35:11.509Z,31.05
2022-12-09T05:37:40.122Z,29.83
2022-12-09T05:40:10.210Z,30.08
2022-12-09T05:42:41.669Z,30.25
2022-12-09T05:45:12.441Z,27.17
2022-12-09T05:47:43.305Z,28.80
2022-12-09T05:50:12.556Z,28.08
2022-12-09T05:52:42.113Z,30.65
2022-12-09T05:55:11.899Z,33.38
2022-12-09T05:57:40.462Z,31.08
2022-12-09T06:00:10.749Z,34.05
2022-12-09T06:02:39.959Z,33.53
2022-12-09T06:05:11.078Z,36.70
2022-12-09T06:07:39.771Z,31.55
2022-12-09T06:10:10.240Z,36.72
2022-12-09T06:12:39.211Z,34.22
2022-12-09T06:15:10.534Z,36.28
2022-12-09T06:17:40.262Z,33.95
2022-12-09T06:20:10.997Z,38.13
2022-12-09T06:22:39.656Z,36.92
2022-12-09T06:25:08.294Z,33.97
2022-12-09T06:27:37.298Z,38.65
2022-12-09T06:30:06.540Z,36.00
2022-12-09T06:32:35.912Z,36.65
2022-12-09T06:35:05.157Z,38.42
2022-12-09T06:37:35.543Z,35.63
2022-12-09T06:40:04.075Z,35.50
2022-12-09T06:42:32.670Z,36.58
2022-12-09T06:45:01.180Z,39.75
2022-12-09T06:47:29.774Z,36.85
2022-12-09T06:50:06.712Z,35.75
2022-12-09T06:52:38.295Z,36.50
2022-12-09T06:55:07.901Z,37.03
2022-12-09T06:57:37.530Z,36.88
2022-12-09T07:00:07.774Z,34.88
2022-12-09T07:02:37.317Z,34.22
2022-12-09T07:05:08.237Z,37.50
2022-12-09T07:07:38.797Z,25.63
2022-12-09T07:10:10.531Z,34.00
2022-12-09T07:12:39.564Z,32.47
2022-12-09T07:15:09.323Z,32.88
2022-12-09T07:17:39.153Z,40.08
2022-12-09T07:20:09.337Z,39.75
2022-12-09T07:22:39.608Z,34.25
2022-12-09T07:25:08.867Z,30.90
2022-12-09T07:27:38.075Z,31.58
2022-12-09T07:30:10.317Z,30.48
2022-12-09T07:32:39.308Z,28.85
2022-12-09T07:35:08.757Z,36.78
2022-12-09T07:37:37.464Z,30.48
2022-12-09T07:40:08.665Z,47.53
2022-12-09T07:42:37.290Z,51.72
2022-12-09T07:45:06.959Z,39.35
2022-12-09T07:47:36.694Z,35.42
2022-12-09T07:50:06.999Z,34.67
2022-12-09T07:52:36.364Z,33.33
2022-12-09T07:55:07.810Z,34.17
2022-12-09T07:57:38.438Z,32.05
2022-12-09T08:00:08.672Z,35.53
2022-12-09T08:02:37.314Z,35.30
2022-12-09T08:05:07.809Z,46.20
2022-12-09T08:07:43.715Z,39.78
2022-12-09T08:10:14.130Z,27.77
2022-12-09T08:12:43.098Z,30.85
2022-12-09T08:15:13.204Z,26.40
2022-12-09T08:17:42.012Z,28.90
2022-12-09T08:20:11.534Z,26.80
2022-12-09T08:22:40.701Z,28.02
2022-12-09T08:25:10.046Z,34.15
2022-12-09T08:27:40.415Z,31.20
2022-12-09T08:30:10.791Z,33.20
2022-12-09T08:32:39.997Z,33.25
2022-12-09T08:35:15.210Z,37.65
2022-12-09T08:37:44.434Z,36.53
2022-12-09T08:40:14.306Z,36.33
2022-12-09T08:42:44.675Z,40.70
2022-12-09T08:45:13.185Z,35.65
2022-12-09T08:47:45.166Z,35.25
2022-12-09T08:50:14.490Z,40.58
2022-12-09T08:52:43.716Z,40.67
2022-12-09T08:55:12.142Z,39.28
2022-12-09T08:57:41.006Z,40.97
2022-12-09T09:00:12.295Z,106.00
2022-12-09T09:02:41.369Z,90.75
2022-12-09T09:05:10.586Z,57.38
2022-12-09T09:07:39.719Z,59.67
2022-12-09T09:10:10.208Z,54.58
2022-12-09T09:12:43.225Z,39.45
2022-12-09T09:15:14.743Z,54.38
2022-12-09T09:17:49.822Z,47.47
2022-12-09T09:20:20.061Z,45.25
2022-12-09T09:22:49.165Z,38.58
2022-12-09T09:25:18.456Z,38.78
2022-12-09T09:27:47.163Z,33.65
2022-12-09T09:30:17.151Z,33.00
2022-12-09T09:32:46.171Z,36.80
2022-12-09T09:35:14.723Z,40.97
2022-12-09T09:37:43.849Z,31.80
2022-12-09T09:40:13.292Z,34.25
2022-12-09T09:42:47.171Z,41.67
2022-12-09T09:45:20.632Z,40.65
2022-12-09T09:47:52.805Z,34.28
2022-12-09T09:50:28.489Z,46.03
2022-12-09T09:52:57.669Z,37.15
2022-12-09T09:55:33.221Z,31.88
2022-12-09T09:58:07.956Z,32.13
2022-12-09T10:00:43.501Z,35.13
2022-12-09T10:03:15.549Z,31.08
2022-12-09T10:05:50.905Z,29.67
2022-12-09T10:08:28.030Z,27.25
2022-12-09T10:11:04.008Z,26.23
2022-12-09T10:13:45.479Z,23.20
2022-12-09T10:16:18.998Z,24.30
2022-12-09T10:19:08.197Z,30.35
2022-12-09T10:21:42.346Z,21.63
2022-12-09T10:24:21.369Z,22.60
2022-12-09T10:27:00.097Z,19.38
2022-12-09T10:29:44.646Z,18.10
2022-12-09T10:32:19.619Z,20.45
2022-12-09T10:34:48.711Z,20.48
2022-12-09T10:37:25.853Z,24.42
2022-12-09T10:39:58.773Z,20.25
2022-12-09T10:42:45.564Z,26.45
2022-12-09T10:45:14.463Z,21.27
2022-12-09T10:47:50.918Z,19.80
2022-12-09T10:50:31.664Z,24.67
2022-12-09T10:53:06.225Z,21.60
2022-12-09T10:55:38.877Z,22.00
2022-12-09T10:58:21.156Z,20.85
2022-12-09T11:01:11.915Z,22.92
2022-12-09T11:03:43.344Z,23.70
2022-12-09T11:06:27.837Z,24.90
2022-12-09T11:09:00.095Z,25.77
2022-12-09T11:11:45.422Z,26.58
2022-12-09T11:14:24.819Z,39.67
2022-12-09T11:16:55.447Z,24.98
2022-12-09T11:19:33.279Z,131.75
2022-12-09T11:22:38.309Z,63.53
2022-12-09T11:25:27.215Z,71.78
2022-12-09T11:27:57.875Z,65.03
2022-12-09T11:30:29.032Z,33.20
2022-12-09T11:33:01.496Z,37.72
2022-12-09T11:35:40.908Z,36.50
2022-12-09T11:38:18.677Z,40.47
2022-12-09T11:41:00.655Z,46.55
2022-12-09T11:43:34.120Z,35.92
2022-12-09T11:46:03.311Z,38.47
2022-12-09T11:48:40.209Z,36.53
2022-12-09T11:51:21.635Z,37.15
2022-12-09T11:53:50.390Z,32.15
2022-12-09T11:56:21.348Z,31.10
2022-12-09T11:58:54.170Z,26.67
2022-12-09T12:01:25.821Z,29.77
2022-12-09T12:03:56.957Z,29.38
2022-12-09T12:06:32.879Z,32.72
2022-12-09T12:09:04.439Z,27.65
2022-12-09T12:14:05.981Z,32.10
2022-12-09T12:16:39.962Z,28.20
2022-12-09T12:19:14.078Z,28.42
2022-12-09T12:21:55.128Z,25.15
2022-12-09T12:24:35.472Z,34.40
2022-12-09T12:27:13.846Z,33.45
2022-12-09T12:29:49.149Z,33.42
2022-12-09T12:32:38.728Z,35.42
2022-12-09T12:35:42.957Z,33.72
2022-12-09T12:38:27.437Z,31.58
2022-12-09T12:41:00.323Z,48.72
2022-12-09T12:44:06.785Z,53.15
2022-12-09T12:46:45.731Z,56.35
2022-12-09T12:49:23.383Z,60.45
2022-12-09T12:52:01.509Z,54.53
2022-12-09T12:54:45.312Z,61.65
2022-12-09T12:57:19.133Z,48.10
2022-12-09T12:59:53.202Z,48.38
2022-12-09T13:02:33.609Z,33.10
2022-12-09T13:05:04.714Z,47.08
2022-12-09T13:10:09.137Z,52.60
2022-12-09T13:12:56.618Z,44.95
2022-12-09T13:15:32.247Z,45.88
2022-12-09T13:18:05.718Z,53.25
2022-12-09T13:20:40.777Z,73.75
2022-12-09T13:23:18.432Z,37.38
2022-12-09T13:25:54.019Z,58.75
2022-12-09T13:28:26.640Z,42.17
2022-12-09T13:30:59.103Z,49.67
2022-12-09T13:33:38.336Z,62.63
2022-12-09T13:36:10.063Z,50.10
2022-12-09T13:38:40.803Z,68.40
2022-12-09T13:41:55.445Z,52.05
2022-12-09T13:44:30.096Z,43.60
2022-12-09T13:47:16.435Z,52.10
2022-12-09T13:49:54.403Z,37.15
2022-12-09T13:52:41.185Z,57.05
2022-12-09T13:55:34.728Z,65.18
2022-12-09T13:58:51.054Z,56.20
2022-12-09T14:01:23.730Z,47.95
2022-12-09T14:03:58.770Z,46.58
2022-12-09T14:06:30.439Z,30.40
2022-12-09T14:11:49.392Z,9.05
2022-12-09T14:14:46.942Z,26.30
2022-12-09T14:17:21.038Z,43.33
2022-12-09T14:19:55.687Z,44.65
2022-12-09T14:22:35.342Z,48.28
2022-12-09T14:25:50.995Z,80.13
2022-12-09T14:29:01.315Z,63.88
2022-12-09T14:32:00.245Z,48.80
2022-12-09T14:34:40.216Z,36.75
2022-12-09T14:37:21.737Z,42.78
2022-12-09T14:39:54.519Z,51.35
2022-12-09T14:42:29.768Z,61.15
2022-12-09T14:45:01.722Z,67.22
2022-12-09T14:47:34.957Z,45.88
2022-12-09T14:50:10.564Z,25.73
2022-12-09T14:52:39.077Z,28.52
2022-12-09T14:55:10.274Z,19.10
2022-12-09T14:57:41.729Z,20.33
2022-12-09T15:03:30.763Z,16.52
2022-12-09T15:05:55.895Z,20.98
2022-12-09T15:08:32.843Z,25.38
2022-12-09T15:11:02.516Z,32.45
2022-12-09T15:13:34.676Z,40.45
2022-12-09T15:16:03.490Z,32.58
2022-12-09T15:18:33.792Z,41.95
2022-12-09T15:21:02.709Z,41.65
2022-12-09T15:23:32.769Z,41.30
2022-12-09T15:26:05.148Z,43.40
2022-12-09T15:28:34.571Z,41.95
2022-12-09T15:31:05.888Z,36.35
2022-12-09T15:33:41.594Z,42.53
2022-12-09T15:36:13.016Z,39.83
2022-12-09T15:38:43.866Z,42.30
2022-12-09T15:41:30.035Z,44.30
2022-12-09T15:44:00.877Z,45.42
2022-12-09T15:49:00.831Z,52.22
2022-12-09T15:51:30.008Z,39.28
2022-12-09T15:54:00.244Z,47.25
2022-12-09T15:56:32.542Z,48.22
2022-12-09T15:59:05.860Z,47.97
2022-12-09T16:01:35.855Z,65.13
2022-12-09T16:04:06.935Z,54.83
2022-12-09T16:09:12.821Z,52.45
2022-12-09T16:11:43.203Z,66.97
2022-12-09T16:14:12.222Z,41.35
2022-12-09T16:16:44.792Z,48.22
2022-12-09T16:19:36.261Z,37.55
2022-12-09T16:22:07.044Z,38.67
2022-12-09T16:25:12.579Z,34.22
2022-12-09T16:27:27.485Z,34.65
2022-12-09T16:29:57.795Z,36.45
2022-12-09T16:32:30.373Z,28.05
2022-12-09T16:35:01.521Z,31.90
2022-12-09T16:37:38.231Z,30.25
2022-12-09T16:40:50.431Z,34.33
2022-12-09T16:43:21.717Z,33.80
2022-12-09T16:45:51.027Z,34.03
2022-12-09T16:48:20.458Z,36.63
2022-12-09T16:50:51.439Z,40.42
2022-12-09T16:53:21.914Z,52.83
2022-12-09T16:55:51.706Z,37.08
2022-12-09T16:58:20.433Z,42.47
2022-12-09T17:00:49.106Z,49.13
2022-12-09T17:03:21.140Z,48.60
2022-12-09T17:05:50.889Z,55.65
2022-12-09T17:08:19.341Z,48.50
2022-12-09T17:10:47.813Z,49.03
2022-12-09T17:13:16.315Z,49.10
2022-12-09T17:15:44.562Z,57.03
2022-12-09T17:18:13.036Z,52.17
2022-12-09T17:20:41.398Z,56.78
2022-12-09T17:23:11.493Z,57.67
2022-12-09T17:25:39.654Z,59.53
2022-12-09T17:28:08.344Z,54.28
2022-12-09T17:30:38.566Z,57.15
2022-12-09T17:33:07.017Z,53.08
2022-12-09T17:35:38.624Z,68.47
2022-12-09T17:38:07.043Z,93.65
2022-12-09T17:40:37.095Z,63.28
2022-12-09T17:43:05.601Z,59.03
2022-12-09T17:45:37.424Z,58.83
2022-12-09T17:48:10.302Z,61.40
2022-12-09T17:50:38.739Z,60.42
2022-12-09T17:53:07.274Z,53.33
2022-12-09T17:55:35.426Z,70.28
2022-12-09T17:58:05.379Z,61.40
2022-12-09T18:00:34.391Z,55.97
2022-12-09T18:03:02.940Z,58.22
2022-12-09T18:05:31.058Z,61.85
2022-12-09T18:07:59.608Z,62.08
2022-12-09T18:10:27.896Z,87.07
2022-12-09T18:12:56.450Z,59.75
2022-12-09T18:15:27.381Z,71.60
2022-12-09T18:20:23.696Z,84.80
2022-12-09T18:22:52.113Z,82.43
2022-12-09T18:25:20.287Z,66.15
2022-12-09T18:27:48.801Z,69.65
2022-12-09T18:30:17.086Z,64.40
2022-12-09T18:32:47.177Z,68.78
2022-12-09T18:35:15.350Z,64.57
2022-12-09T18:37:44.071Z,61.50
2022-12-09T18:40:13.642Z,59.33
2022-12-09T18:42:42.151Z,63.33
2022-12-09T18:45:11.129Z,65.32
2022-12-09T18:47:39.652Z,60.22
2022-12-09T18:50:10.579Z,66.53
2022-12-09T18:52:39.255Z,64.78
2022-12-09T18:55:08.237Z,71.78
2022-12-09T18:57:36.643Z,71.95
2022-12-09T19:00:06.690Z,67.45
2022-12-09T19:02:35.486Z,76.97
2022-12-09T19:05:03.883Z,69.13
2022-12-09T19:07:33.704Z,81.72
2022-12-09T19:10:01.981Z,60.10
2022-12-09T19:12:46.414Z,69.22
2022-12-09T19:15:16.102Z,69.53
2022-12-09T19:17:46.171Z,75.28
2022-12-09T19:20:14.574Z,71.80
2022-12-09T19:22:44.479Z,77.57
2022-12-09T19:25:12.768Z,67.68
2022-12-09T19:27:41.244Z,74.38
2022-12-09T19:30:10.416Z,75.50
2022-12-09T19:32:54.163Z,65.93
2022-12-09T19:35:22.237Z,63.15
2022-12-09T19:37:56.661Z,68.25
2022-12-09T19:40:27.872Z,58.33
2022-12-09T19:42:56.383Z,70.60
2022-12-09T19:45:24.500Z,65.72
2022-12-09T19:47:52.941Z,64.75
2022-12-09T19:50:22.713Z,67.00
2022-12-09T19:52:52.677Z,64.28
2022-12-09T19:55:20.965Z,73.18
2022-12-09T19:57:49.415Z,68.68
2022-12-09T20:00:18.476Z,55.25
2022-12-09T20:02:46.976Z,54.40
2022-12-09T20:05:15.244Z,51.47
2022-12-09T20:07:43.771Z,54.95
2022-12-09T20:10:13.536Z,52.05
2022-12-09T20:12:42.152Z,48.90
2022-12-09T20:15:11.028Z,51.97
2022-12-09T20:17:39.524Z,42.42
2022-12-09T20:20:10.819Z,45.47
2022-12-09T20:22:39.302Z,41.03
2022-12-09T20:25:08.417Z,45.88
2022-12-09T20:27:38.373Z,47.60
2022-12-09T20:30:07.847Z,53.78
2022-12-09T20:32:36.616Z,47.15
2022-12-09T20:35:11.166Z,58.47
2022-12-09T20:37:39.622Z,53.83
2022-12-09T20:40:09.704Z,58.60
2022-12-09T20:42:39.760Z,47.70
2022-12-09T20:45:09.303Z,48.72
2022-12-09T20:47:37.811Z,47.58
2022-12-09T20:50:07.301Z,48.28
2022-12-09T20:52:35.843Z,59.88
2022-12-09T20:55:04.222Z,59.58
2022-12-09T20:57:32.925Z,61.95
2022-12-09T21:00:02.515Z,62.40
2022-12-09T21:02:39.544Z,65.35
2022-12-09T21:05:09.664Z,61.47
2022-12-09T21:07:38.409Z,64.50
2022-12-09T21:10:07.626Z,57.30
2022-12-09T21:12:36.649Z,57.03
2022-12-09T21:15:07.333Z,49.72
2022-12-09T21:17:35.847Z,53.03
2022-12-09T21:20:04.604Z,54.38
2022-12-09T21:22:34.183Z,51.00
2022-12-09T21:25:02.683Z,42.20
2022-12-09T21:27:31.258Z,42.45
2022-12-09T21:29:59.354Z,39.17
2022-12-09T21:32:29.108Z,40.95
2022-12-09T21:34:58.270Z,46.08
2022-12-09T21:37:26.901Z,41.65
2022-12-09T21:39:55.269Z,36.47
2022-12-09T21:42:23.810Z,33.58
2022-12-09T21:44:51.957Z,32.20
2022-12-09T21:47:20.430Z,29.38
2022-12-09T21:49:49.868Z,32.80
2022-12-09T21:52:18.337Z,35.00
2022-12-09T21:54:55.030Z,54.40
2022-12-09T21:57:23.880Z,48.95
2022-12-09T21:59:52.108Z,45.83
2022-12-09T22:02:20.687Z,44.33
2022-12-09T22:04:50.299Z,38.33
2022-12-09T22:07:18.727Z,37.47
2022-12-09T22:09:46.987Z,49.78
2022-12-09T22:12:15.394Z,52.58
2022-12-09T22:14:43.543Z,40.45
2022-12-09T22:17:12.025Z,33.75
2022-12-09T22:19:40.092Z,39.17
2022-12-09T22:22:10.316Z,27.92
2022-12-09T22:24:38.515Z,29.90
2022-12-09T22:27:07.205Z,32.65
2022-12-09T22:29:36.766Z,24.88
2022-12-09T22:32:05.410Z,26.73
2022-12-09T22:34:33.530Z,29.70
2022-12-09T22:37:21.079Z,30.05
2022-12-09T22:39:53.297Z,25.65
2022-12-09T22:42:21.780Z,25.35
2022-12-09T22:44:49.955Z,22.42
2022-12-09T22:47:18.767Z,20.30
2022-12-09T22:49:47.037Z,20.73
2022-12-09T22:52:15.608Z,20.67
2022-12-09T22:54:43.862Z,22.58
2022-12-09T22:57:13.688Z,18.25
2022-12-09T22:59:43.227Z,19.48
2022-12-09T23:02:11.847Z,20.23
2022-12-09T23:04:40.038Z,21.88
2022-12-09T23:07:09.606Z,20.05
2022-12-09T23:09:38.868Z,18.73
2022-12-09T23:12:08.056Z,18.88
2022-12-09T23:14:37.915Z,16.95
2022-12-09T23:17:07.117Z,18.42
2022-12-09T23:19:35.394Z,22.48
2022-12-09T23:22:04.081Z,19.95
2022-12-09T23:24:32.184Z,20.73
2022-12-09T23:27:00.620Z,19.65
2022-12-09T23:29:28.691Z,19.63
2022-12-09T23:31:58.547Z,19.40
2022-12-09T23:34:27.080Z,17.70
2022-12-09T23:36:55.982Z,20.77
2022-12-09T23:39:24.368Z,21.52
2022-12-09T23:41:52.728Z,18.80
2022-12-09T23:44:20.949Z,18.85
2022-12-09T23:46:49.629Z,19.88
2022-12-09T23:49:19.256Z,20.15
2022-12-09T23:51:47.998Z,17.23
2022-12-09T23:54:18.401Z,17.95
2022-12-09T23:56:50.065Z,17.77
2022-12-09T23:59:19.713Z,19.55
